Time;durP1;ratioP1;P1;durP2;ratioP2;P2;SDS_P1;SDS_P2;PMS_P1;PMS_P2;Temp;Humidity;BMP_temperature;BMP_pressure;BME280_temperature;BME280_humidity;BME280_pressure;Samples;Min_cycle;Max_cycle;Signal;HPM_P1;HPM_P2
2022/08/06 00:01:59;;;;;;;7.82;5.45;;;;;;;;;;5055092;28;20025;-86
2022/08/06 00:04:25;;;;;;;6.78;5.80;;;;;;;;;;5037663;28;20111;-86
2022/08/06 00:06:51;;;;;;;7.45;5.80;;;;;;;;;;5054940;28;20497;-87
2022/08/06 00:09:18;;;;;;;6.65;5.85;;;;;;;;;;5053565;28;20100;-86
2022/08/06 00:11:44;;;;;;;6.15;5.55;;;;;;;;;;5054245;28;20034;-87
2022/08/06 00:14:10;;;;;;;6.93;5.80;;;;;;;;;;5034217;28;20401;-86
2022/08/06 00:16:36;;;;;;;7.03;5.72;;;;;;;;;;5036450;28;20021;-87
2022/08/06 00:19:02;;;;;;;6.65;5.90;;;;;;;;;;5052407;28;20030;-86
2022/08/06 00:21:28;;;;;;;6.63;5.85;;;;;;;;;;5035718;28;20102;-87
2022/08/06 00:23:54;;;;;;;7.00;5.65;;;;;;;;;;5034128;28;20459;-86
2022/08/06 00:26:21;;;;;;;7.13;5.75;;;;;;;;;;5052228;28;20025;-86
2022/08/06 00:28:47;;;;;;;6.65;5.57;;;;;;;;;;5034894;28;20135;-85
2022/08/06 00:31:13;;;;;;;7.72;6.07;;;;;;;;;;5035300;28;20521;-86
2022/08/06 00:33:41;;;;;;;9.13;6.20;;;;;;;;;;5034495;28;20033;-86
2022/08/06 00:36:08;;;;;;;7.55;6.05;;;;;;;;;;5051278;28;20028;-86
2022/08/06 00:38:34;;;;;;;6.45;5.68;;;;;;;;;;5053116;28;20052;-87
2022/08/06 00:41:00;;;;;;;7.18;5.60;;;;;;;;;;5033266;28;20107;-86
2022/08/06 00:43:26;;;;;;;7.22;6.00;;;;;;;;;;5032800;28;20263;-86
2022/08/06 00:45:52;;;;;;;7.10;6.25;;;;;;;;;;5034820;28;20025;-86
2022/08/06 00:48:18;;;;;;;6.88;6.03;;;;;;;;;;5034289;28;20068;-86
2022/08/06 00:50:44;;;;;;;8.55;6.20;;;;;;;;;;5034088;28;20033;-85
2022/08/06 00:53:10;;;;;;;6.70;6.00;;;;;;;;;;5051606;28;20027;-87
2022/08/06 00:55:36;;;;;;;6.63;5.93;;;;;;;;;;5034165;28;20108;-86
2022/08/06 00:58:03;;;;;;;7.38;5.70;;;;;;;;;;5052234;28;20483;-87
2022/08/06 01:00:30;;;;;;;7.70;6.28;;;;;;;;;;5037962;28;20021;-86
2022/08/06 01:02:56;;;;;;;7.38;6.47;;;;;;;;;;5037523;28;20470;-86
2022/08/06 01:05:22;;;;;;;7.57;5.88;;;;;;;;;;5038079;28;20025;-86
2022/08/06 01:07:48;;;;;;;7.28;5.95;;;;;;;;;;5039701;28;20655;-85
2022/08/06 01:10:14;;;;;;;7.45;6.50;;;;;;;;;;5059306;28;20029;-86
2022/08/06 01:12:40;;;;;;;6.70;5.85;;;;;;;;;;5040226;28;20029;-85
2022/08/06 01:15:07;;;;;;;7.13;5.85;;;;;;;;;;5028819;28;20450;-85
2022/08/06 01:17:52;;;;;;;7.00;5.93;;;;;;;;;;5043459;28;20389;-85
2022/08/06 01:20:24;;;;;;;7.57;6.60;;;;;;;;;;5026901;28;20471;-85
2022/08/06 01:23:09;;;;;;;6.38;5.68;;;;;;;;;;5046050;28;20074;-84
2022/08/06 01:25:43;;;;;;;6.68;5.97;;;;;;;;;;5054236;28;20082;-85
2022/08/06 01:28:36;;;;;;;6.68;5.97;;;;;;;;;;5052150;28;20021;-86
2022/08/06 01:31:05;;;;;;;7.13;6.40;;;;;;;;;;4956164;29;20687;-85
2022/08/06 01:33:33;;;;;;;6.47;5.75;;;;;;;;;;4955904;28;20057;-85
2022/08/06 01:36:02;;;;;;;7.03;5.75;;;;;;;;;;4956977;29;20093;-85
2022/08/06 01:38:42;;;;;;;7.88;6.10;;;;;;;;;;4956313;29;20054;-85
2022/08/06 01:41:10;;;;;;;6.95;6.10;;;;;;;;;;4956807;29;20035;-86
2022/08/06 01:43:37;;;;;;;7.63;5.93;;;;;;;;;;4939768;29;20090;-87
2022/08/06 01:46:04;;;;;;;6.53;5.68;;;;;;;;;;4941513;29;20027;-85
2022/08/06 01:48:32;;;;;;;8.02;6.07;;;;;;;;;;4954878;28;20043;-86
2022/08/06 01:51:00;;;;;;;6.80;5.72;;;;;;;;;;4956276;29;20114;-86
2022/08/06 01:53:37;;;;;;;8.00;5.97;;;;;;;;;;4955566;28;20079;-88
2022/08/06 01:56:05;;;;;;;7.65;5.82;;;;;;;;;;4937448;29;20036;-86
2022/08/06 01:58:33;;;;;;;7.85;6.07;;;;;;;;;;4948116;29;20125;-86
2022/08/06 02:01:00;;;;;;;7.85;6.03;;;;;;;;;;4956646;29;20503;-86
2022/08/06 02:03:31;;;;;;;7.38;6.15;;;;;;;;;;4938121;29;20121;-86
2022/08/06 02:05:58;;;;;;;10.38;6.45;;;;;;;;;;4939925;29;20564;-85
2022/08/06 02:08:26;;;;;;;7.60;6.05;;;;;;;;;;5030154;28;20064;-86
2022/08/06 02:10:53;;;;;;;7.55;5.75;;;;;;;;;;5053558;28;20478;-86
2022/08/06 02:13:21;;;;;;;7.55;5.95;;;;;;;;;;5054834;28;20116;-85
2022/08/06 02:15:48;;;;;;;6.72;5.45;;;;;;;;;;5056631;28;20036;-85
2022/08/06 02:18:15;;;;;;;9.18;6.00;;;;;;;;;;5053698;28;20028;-85
2022/08/06 02:20:44;;;;;;;7.55;5.32;;;;;;;;;;5055999;28;20036;-86
2022/08/06 02:23:12;;;;;;;6.70;5.55;;;;;;;;;;5035864;28;20165;-86
2022/08/06 02:25:41;;;;;;;7.13;5.95;;;;;;;;;;5036231;28;20537;-85
2022/08/06 02:28:08;;;;;;;8.65;5.15;;;;;;;;;;5054494;28;20375;-86
2022/08/06 02:30:36;;;;;;;6.32;5.30;;;;;;;;;;5056398;28;20028;-85
2022/08/06 02:33:03;;;;;;;7.85;5.60;;;;;;;;;;5035590;28;20024;-86
2022/08/06 02:35:30;;;;;;;6.60;5.05;;;;;;;;;;5037513;28;20032;-85
2022/08/06 02:38:04;;;;;;;7.70;5.32;;;;;;;;;;5054083;28;20036;-86
2022/08/06 02:40:43;;;;;;;7.80;5.40;;;;;;;;;;5037199;28;20033;-86
2022/08/06 02:43:11;;;;;;;6.72;5.55;;;;;;;;;;5036372;28;20039;-85
2022/08/06 02:45:40;;;;;;;7.43;5.35;;;;;;;;;;5054733;28;20455;-86
2022/08/06 02:48:18;;;;;;;7.57;5.10;;;;;;;;;;5037466;28;20565;-85
2022/08/06 02:50:46;;;;;;;6.50;5.00;;;;;;;;;;5055538;28;20387;-86
2022/08/06 02:53:23;;;;;;;5.90;4.68;;;;;;;;;;5051715;28;20029;-85
2022/08/06 02:55:51;;;;;;;8.60;5.20;;;;;;;;;;5036046;28;20033;-86
2022/08/06 02:58:23;;;;;;;6.20;4.68;;;;;;;;;;5036872;28;20024;-86
2022/08/06 03:00:51;;;;;;;8.18;6.20;;;;;;;;;;5055681;28;20430;-85
2022/08/06 03:03:19;;;;;;;8.13;5.22;;;;;;;;;;5036532;28;20029;-86
2022/08/06 03:05:46;;;;;;;7.85;5.20;;;;;;;;;;5054479;28;20025;-86
2022/08/06 03:08:16;;;;;;;6.95;4.95;;;;;;;;;;5035620;28;20554;-86
2022/08/06 03:10:43;;;;;;;7.68;5.43;;;;;;;;;;5036615;28;20017;-86
2022/08/06 03:13:09;;;;;;;7.20;5.45;;;;;;;;;;5051791;28;20154;-86
2022/08/06 03:15:36;;;;;;;7.85;5.75;;;;;;;;;;5054695;28;20035;-85
2022/08/06 03:18:03;;;;;;;6.72;5.35;;;;;;;;;;5053679;28;20390;-87
2022/08/06 03:20:30;;;;;;;7.25;5.50;;;;;;;;;;5035228;28;20040;-85
2022/08/06 03:22:59;;;;;;;8.70;5.90;;;;;;;;;;5053727;28;20068;-86
2022/08/06 03:25:26;;;;;;;7.50;6.25;;;;;;;;;;5054682;28;20021;-85
2022/08/06 03:27:53;;;;;;;9.85;5.90;;;;;;;;;;5033699;28;20655;-86
2022/08/06 03:30:20;;;;;;;7.68;6.03;;;;;;;;;;5054071;28;20027;-85
2022/08/06 03:32:46;;;;;;;7.10;5.75;;;;;;;;;;5036643;28;20075;-85
2022/08/06 03:35:12;;;;;;;7.97;6.15;;;;;;;;;;5055049;28;20044;-87
2022/08/06 03:37:40;;;;;;;8.80;6.38;;;;;;;;;;5037766;28;20057;-86
2022/08/06 03:40:07;;;;;;;8.07;6.60;;;;;;;;;;5034399;28;20040;-86
2022/08/06 03:42:34;;;;;;;7.55;5.97;;;;;;;;;;5032577;28;20029;-86
2022/08/06 03:45:00;;;;;;;7.78;5.70;;;;;;;;;;5033566;28;20063;-85
2022/08/06 03:47:32;;;;;;;8.23;6.35;;;;;;;;;;5054086;28;20029;-85
2022/08/06 03:50:07;;;;;;;8.13;6.75;;;;;;;;;;5052946;28;20112;-86
2022/08/06 03:52:37;;;;;;;8.82;6.15;;;;;;;;;;5036168;28;20033;-86
2022/08/06 03:55:04;;;;;;;8.18;6.20;;;;;;;;;;5027107;28;20013;-85
2022/08/06 03:57:35;;;;;;;7.30;6.40;;;;;;;;;;5045917;28;20482;-87
2022/08/06 04:00:02;;;;;;;7.57;6.03;;;;;;;;;;5052485;28;20457;-85
2022/08/06 04:02:29;;;;;;;7.90;6.53;;;;;;;;;;5053759;28;20108;-86
2022/08/06 04:04:56;;;;;;;7.60;6.50;;;;;;;;;;5052970;28;20021;-88
2022/08/06 04:07:22;;;;;;;10.15;7.03;;;;;;;;;;5050549;28;20029;-85
2022/08/06 04:09:48;;;;;;;8.02;7.00;;;;;;;;;;5050060;28;20036;-86
2022/08/06 04:12:15;;;;;;;10.63;6.50;;;;;;;;;;5051973;28;20017;-85
2022/08/06 04:14:41;;;;;;;8.65;6.88;;;;;;;;;;5052782;28;20025;-86
2022/08/06 04:17:08;;;;;;;9.15;7.05;;;;;;;;;;5034834;28;20028;-86
2022/08/06 04:19:34;;;;;;;8.82;7.03;;;;;;;;;;5050937;28;20048;-87
2022/08/06 04:22:00;;;;;;;8.25;6.85;;;;;;;;;;5032126;28;20025;-86
2022/08/06 04:24:26;;;;;;;8.10;7.28;;;;;;;;;;5049767;28;20082;-85
2022/08/06 04:26:54;;;;;;;9.05;7.05;;;;;;;;;;5051654;28;20028;-86
2022/08/06 04:29:21;;;;;;;9.57;7.13;;;;;;;;;;5034004;28;20368;-87
2022/08/06 04:31:50;;;;;;;9.85;7.85;;;;;;;;;;5049966;28;20128;-86
2022/08/06 04:34:18;;;;;;;9.52;7.53;;;;;;;;;;5049187;28;20029;-87
2022/08/06 04:36:45;;;;;;;10.63;7.70;;;;;;;;;;5051773;28;20025;-86
2022/08/06 04:39:11;;;;;;;9.20;7.60;;;;;;;;;;5050323;28;20040;-86
2022/08/06 04:41:37;;;;;;;8.80;7.88;;;;;;;;;;5051382;28;20056;-86
2022/08/06 04:44:03;;;;;;;9.10;7.72;;;;;;;;;;5031243;28;20037;-86
2022/08/06 04:46:30;;;;;;;10.18;7.57;;;;;;;;;;5051284;28;20028;-86
2022/08/06 04:48:56;;;;;;;8.32;7.40;;;;;;;;;;5033657;28;20024;-86
2022/08/06 04:51:25;;;;;;;9.00;6.75;;;;;;;;;;5033356;28;20025;-86
2022/08/06 04:53:51;;;;;;;8.52;7.43;;;;;;;;;;5032875;28;20566;-86
2022/08/06 04:56:17;;;;;;;7.93;6.97;;;;;;;;;;5033078;28;20115;-87
2022/08/06 04:58:47;;;;;;;8.40;7.00;;;;;;;;;;5033598;28;20025;-85
2022/08/06 05:01:13;;;;;;;9.02;7.30;;;;;;;;;;5033311;28;20495;-85
2022/08/06 05:03:39;;;;;;;8.13;7.28;;;;;;;;;;5032274;28;20052;-86
2022/08/06 05:06:11;;;;;;;9.35;7.32;;;;;;;;;;5051315;28;20163;-86
2022/08/06 05:08:39;;;;;;;9.15;7.70;;;;;;;;;;5047562;28;20041;-86
2022/08/06 05:11:25;;;;;;;8.60;6.82;;;;;;;;;;5049508;28;20021;-85
2022/08/06 05:13:53;;;;;;;11.00;7.22;;;;;;;;;;5032469;28;20502;-87
2022/08/06 05:16:20;;;;;;;9.05;7.45;;;;;;;;;;5050614;28;20457;-88
2022/08/06 05:18:50;;;;;;;9.48;7.60;;;;;;;;;;5050221;28;20401;-87
2022/08/06 05:21:19;;;;;;;9.77;7.38;;;;;;;;;;5051450;28;20029;-87
2022/08/06 05:23:46;;;;;;;10.57;8.05;;;;;;;;;;5051002;28;20108;-88
2022/08/06 05:26:12;;;;;;;9.38;7.28;;;;;;;;;;5038603;28;20029;-87
2022/08/06 05:28:40;;;;;;;9.20;7.45;;;;;;;;;;5035862;28;20013;-87
2022/08/06 05:31:06;;;;;;;8.80;7.10;;;;;;;;;;5053257;28;20021;-87
2022/08/06 05:33:33;;;;;;;12.05;7.70;;;;;;;;;;5054054;28;20075;-86
2022/08/06 05:36:00;;;;;;;10.68;7.57;;;;;;;;;;5036674;28;20033;-85
2022/08/06 05:38:26;;;;;;;10.10;7.53;;;;;;;;;;5054370;28;20041;-86
2022/08/06 05:40:56;;;;;;;9.10;6.78;;;;;;;;;;5057131;28;20033;-86
2022/08/06 05:43:22;;;;;;;9.43;7.57;;;;;;;;;;5055292;28;20095;-85
2022/08/06 05:45:51;;;;;;;9.30;7.45;;;;;;;;;;5038486;28;20091;-87
2022/08/06 05:48:19;;;;;;;9.45;6.80;;;;;;;;;;5059080;28;20029;-87
2022/08/06 05:50:48;;;;;;;9.35;7.30;;;;;;;;;;5041470;28;20021;-86
2022/08/06 05:53:23;;;;;;;8.38;6.93;;;;;;;;;;5056718;28;21245;-85
2022/08/06 05:55:56;;;;;;;10.10;7.50;;;;;;;;;;5056819;28;20155;-86
2022/08/06 05:58:43;;;;;;;10.07;7.35;;;;;;;;;;5034541;28;20135;-86
2022/08/06 06:01:09;;;;;;;9.63;7.70;;;;;;;;;;5053180;28;20751;-86
2022/08/06 06:03:35;;;;;;;8.38;7.03;;;;;;;;;;5032871;28;20502;-86
2022/08/06 06:06:02;;;;;;;8.90;6.65;;;;;;;;;;5022965;28;20048;-86
2022/08/06 06:08:29;;;;;;;10.10;7.22;;;;;;;;;;5036580;28;20099;-86
2022/08/06 06:10:56;;;;;;;8.85;7.25;;;;;;;;;;5037212;28;20035;-86
2022/08/06 06:13:23;;;;;;;8.35;6.68;;;;;;;;;;5035368;28;20401;-86
2022/08/06 06:15:53;;;;;;;10.55;7.43;;;;;;;;;;5028850;28;20032;-86
2022/08/06 06:18:19;;;;;;;7.75;6.50;;;;;;;;;;5037218;28;20036;-85
2022/08/06 06:20:56;;;;;;;8.52;6.38;;;;;;;;;;5054126;28;20056;-87
2022/08/06 06:23:39;;;;;;;6.97;5.65;;;;;;;;;;5031340;28;20029;-85
2022/08/06 06:26:24;;;;;;;7.40;5.72;;;;;;;;;;5052007;28;20048;-86
2022/08/06 06:29:07;;;;;;;8.00;5.57;;;;;;;;;;5030395;28;20638;-85
2022/08/06 06:31:45;;;;;;;7.47;5.47;;;;;;;;;;5050583;28;20035;-85
2022/08/06 06:34:24;;;;;;;7.85;5.38;;;;;;;;;;5036028;28;20592;-86
2022/08/06 06:36:54;;;;;;;8.40;5.47;;;;;;;;;;5039857;28;20029;-86
2022/08/06 06:39:26;;;;;;;7.60;5.35;;;;;;;;;;5035434;28;20075;-85
2022/08/06 06:41:55;;;;;;;6.85;4.85;;;;;;;;;;5035809;28;20025;-87
2022/08/06 06:44:29;;;;;;;7.15;4.82;;;;;;;;;;5053814;28;20032;-87
2022/08/06 06:47:01;;;;;;;6.38;4.35;;;;;;;;;;5054619;28;20040;-87
2022/08/06 06:49:30;;;;;;;9.17;4.77;;;;;;;;;;5036425;28;20025;-86
2022/08/06 06:52:00;;;;;;;6.57;4.78;;;;;;;;;;5036227;28;20029;-86
2022/08/06 06:54:28;;;;;;;6.45;4.40;;;;;;;;;;5031199;28;20083;-88
2022/08/06 06:56:56;;;;;;;5.82;3.63;;;;;;;;;;5053659;28;20051;-86
2022/08/06 06:59:31;;;;;;;4.93;2.95;;;;;;;;;;5054139;28;20047;-86
2022/08/06 07:01:58;;;;;;;5.50;3.20;;;;;;;;;;5049353;28;20021;-86
2022/08/06 07:04:25;;;;;;;5.07;3.22;;;;;;;;;;5045253;28;20036;-86
2022/08/06 07:06:54;;;;;;;5.07;2.85;;;;;;;;;;5037110;28;20395;-85
2022/08/06 07:09:22;;;;;;;4.38;2.63;;;;;;;;;;5056373;28;20023;-87
2022/08/06 07:11:50;;;;;;;5.10;2.70;;;;;;;;;;5056299;28;20021;-84
2022/08/06 07:14:17;;;;;;;5.22;2.65;;;;;;;;;;5056451;28;20398;-84
2022/08/06 07:16:44;;;;;;;4.68;2.28;;;;;;;;;;5054885;28;20108;-86
2022/08/06 07:19:10;;;;;;;4.57;2.55;;;;;;;;;;5035360;28;20029;-87
2022/08/06 07:21:37;;;;;;;3.97;2.13;;;;;;;;;;5032186;28;20104;-86
2022/08/06 07:24:03;;;;;;;4.45;2.20;;;;;;;;;;5052160;28;20585;-87
2022/08/06 07:26:30;;;;;;;4.75;2.25;;;;;;;;;;5052513;28;20115;-87
2022/08/06 07:28:57;;;;;;;4.10;2.00;;;;;;;;;;5035139;28;20402;-87
2022/08/06 07:31:24;;;;;;;5.18;2.25;;;;;;;;;;5034846;28;20052;-87
2022/08/06 07:33:51;;;;;;;4.20;2.00;;;;;;;;;;5030953;28;20029;-88
2022/08/06 07:36:17;;;;;;;5.57;2.17;;;;;;;;;;5038741;28;20033;-86
2022/08/06 07:38:45;;;;;;;4.13;2.00;;;;;;;;;;5027939;28;20391;-87
2022/08/06 07:41:12;;;;;;;4.82;2.78;;;;;;;;;;5032808;28;20079;-86
2022/08/06 07:43:47;;;;;;;4.22;2.03;;;;;;;;;;5031553;28;20030;-87
2022/08/06 07:46:14;;;;;;;6.00;2.53;;;;;;;;;;5026665;28;20103;-87
2022/08/06 07:48:44;;;;;;;5.22;2.22;;;;;;;;;;5022043;28;20029;-86
2022/08/06 07:51:10;;;;;;;3.97;2.47;;;;;;;;;;5032310;28;20128;-88
2022/08/06 07:53:37;;;;;;;5.20;2.30;;;;;;;;;;5032912;28;20029;-87
2022/08/06 07:56:08;;;;;;;4.55;1.98;;;;;;;;;;5031314;28;20014;-85
2022/08/06 07:58:35;;;;;;;3.90;2.00;;;;;;;;;;5031631;28;20030;-87
2022/08/06 08:01:01;;;;;;;4.30;2.20;;;;;;;;;;5032751;28;20022;-86
2022/08/06 08:06:23;;;;;;;3.90;1.83;;;;;;;;;;5030646;28;20200;-86
2022/08/06 08:09:07;;;;;;;3.72;1.70;;;;;;;;;;5017501;28;20018;-87
2022/08/06 08:11:40;;;;;;;4.13;1.73;;;;;;;;;;5033506;28;20414;-86
2022/08/06 08:14:06;;;;;;;;;;;;;;;;;;5032096;28;20022;-85
2022/08/06 08:16:32;;;;;;;3.50;1.70;;;;;;;;;;5028032;28;20004;-86
2022/08/06 08:18:59;;;;;;;3.38;1.45;;;;;;;;;;5012958;28;20029;-86
2022/08/06 08:21:26;;;;;;;5.70;1.70;;;;;;;;;;5032411;28;20029;-87
2022/08/06 08:23:52;;;;;;;3.13;1.30;;;;;;;;;;5032107;28;20060;-88
2022/08/06 08:26:18;;;;;;;3.45;1.35;;;;;;;;;;5033022;28;20483;-85
2022/08/06 08:28:44;;;;;;;3.72;1.40;;;;;;;;;;5028500;28;20030;-86
2022/08/06 08:31:13;;;;;;;5.20;1.83;;;;;;;;;;5013094;28;20087;-86
2022/08/06 08:33:39;;;;;;;4.05;2.05;;;;;;;;;;5027961;28;20045;-85
2022/08/06 08:36:06;;;;;;;4.50;1.95;;;;;;;;;;5030062;28;20034;-86
2022/08/06 08:38:33;;;;;;;3.75;1.70;;;;;;;;;;5039453;28;20072;-85
2022/08/06 08:41:04;;;;;;;4.45;1.75;;;;;;;;;;5054578;28;20029;-84
2022/08/06 08:43:34;;;;;;;3.70;1.58;;;;;;;;;;5036219;28;20031;-84
2022/08/06 08:46:02;;;;;;;4.35;2.00;;;;;;;;;;5052538;28;20071;-85
2022/08/06 08:48:30;;;;;;;4.15;1.30;;;;;;;;;;5036702;28;20017;-84
2022/08/06 08:50:57;;;;;;;3.75;1.27;;;;;;;;;;5035281;28;20025;-84
2022/08/06 08:53:29;;;;;;;3.50;1.63;;;;;;;;;;5036486;28;20021;-86
2022/08/06 08:55:55;;;;;;;2.53;1.08;;;;;;;;;;5035160;28;20115;-84
2022/08/06 08:58:22;;;;;;;3.15;1.20;;;;;;;;;;5039985;28;20056;-84
2022/08/06 09:00:48;;;;;;;3.30;1.20;;;;;;;;;;5059608;28;20016;-85
2022/08/06 09:03:15;;;;;;;3.70;1.00;;;;;;;;;;5067144;28;20021;-87
2022/08/06 09:05:45;;;;;;;2.58;0.90;;;;;;;;;;5053897;28;20021;-87
2022/08/06 09:08:11;;;;;;;2.33;0.82;;;;;;;;;;5073434;28;20052;-88
2022/08/06 09:10:37;;;;;;;2.22;0.70;;;;;;;;;;5072046;28;20029;-86
2022/08/06 09:13:04;;;;;;;3.13;1.52;;;;;;;;;;5037751;28;20032;-84
2022/08/06 09:15:30;;;;;;;2.97;0.98;;;;;;;;;;5034592;28;20033;-85
2022/08/06 09:17:56;;;;;;;2.00;0.82;;;;;;;;;;5054514;28;20021;-87
2022/08/06 09:20:22;;;;;;;2.60;0.93;;;;;;;;;;5037627;28;20036;-86
2022/08/06 09:22:52;;;;;;;2.75;0.80;;;;;;;;;;5057283;28;20104;-88
2022/08/06 09:25:37;;;;;;;2.58;1.00;;;;;;;;;;5054300;28;20037;-88
2022/08/06 09:28:04;;;;;;;2.67;1.05;;;;;;;;;;5057076;28;20105;-87
2022/08/06 09:30:30;;;;;;;2.22;0.95;;;;;;;;;;5056423;28;20028;-86
2022/08/06 09:32:56;;;;;;;3.95;1.05;;;;;;;;;;5056469;28;20735;-86
2022/08/06 09:35:23;;;;;;;2.75;1.00;;;;;;;;;;5054533;28;20115;-86
2022/08/06 09:37:50;;;;;;;3.55;1.13;;;;;;;;;;5057448;28;20051;-87
2022/08/06 09:40:17;;;;;;;2.60;1.00;;;;;;;;;;5038612;28;20386;-88
2022/08/06 09:42:46;;;;;;;2.45;0.90;;;;;;;;;;5057341;28;20021;-87
2022/08/06 09:45:13;;;;;;;2.72;1.20;;;;;;;;;;5037807;28;20059;-86
2022/08/06 09:47:39;;;;;;;3.03;1.02;;;;;;;;;;5057339;28;20060;-87
2022/08/06 09:50:06;;;;;;;3.10;1.13;;;;;;;;;;5056311;28;20021;-87
2022/08/06 09:52:32;;;;;;;3.33;1.10;;;;;;;;;;5038427;28;20032;-87
2022/08/06 09:54:58;;;;;;;2.85;1.30;;;;;;;;;;5038021;28;20032;-87
2022/08/06 09:57:42;;;;;;;3.10;1.30;;;;;;;;;;5056723;28;20040;-88
2022/08/06 10:00:08;;;;;;;3.80;1.27;;;;;;;;;;5055940;28;20015;-86
2022/08/06 10:02:35;;;;;;;3.65;1.20;;;;;;;;;;5057236;28;20021;-87
2022/08/06 10:05:10;;;;;;;2.97;1.35;;;;;;;;;;5038994;28;20037;-86
2022/08/06 10:07:37;;;;;;;2.85;1.30;;;;;;;;;;5057263;28;20032;-86
2022/08/06 10:10:03;;;;;;;3.58;1.50;;;;;;;;;;5046898;28;20117;-88
2022/08/06 10:12:30;;;;;;;3.22;1.60;;;;;;;;;;5036468;28;20048;-86
2022/08/06 10:14:56;;;;;;;2.85;1.23;;;;;;;;;;5055742;28;20028;-87
2022/08/06 10:17:23;;;;;;;4.38;1.70;;;;;;;;;;5055404;28;20022;-87
2022/08/06 10:20:08;;;;;;;3.30;1.30;;;;;;;;;;5044144;28;20029;-83
2022/08/06 10:22:35;;;;;;;3.10;1.40;;;;;;;;;;5058059;28;20078;-84
2022/08/06 10:25:02;;;;;;;6.03;1.50;;;;;;;;;;5036582;28;20026;-84
2022/08/06 10:27:31;;;;;;;3.00;1.40;;;;;;;;;;5036229;28;20045;-85
2022/08/06 10:30:00;;;;;;;4.00;1.80;;;;;;;;;;5038730;28;20543;-86
2022/08/06 10:32:31;;;;;;;4.00;1.80;;;;;;;;;;5050902;28;20081;-91
2022/08/06 10:34:58;;;;;;;4.25;1.90;;;;;;;;;;5033577;28;20025;-87
2022/08/06 10:37:24;;;;;;;5.45;1.90;;;;;;;;;;5038218;28;20401;-88
2022/08/06 10:39:52;;;;;;;3.60;1.90;;;;;;;;;;5053580;28;20613;-86
2022/08/06 10:42:18;;;;;;;3.80;1.98;;;;;;;;;;5054598;28;20104;-87
2022/08/06 10:44:45;;;;;;;4.35;2.50;;;;;;;;;;5036073;28;20021;-89
2022/08/06 10:47:12;;;;;;;4.20;2.63;;;;;;;;;;5055206;28;20108;-86
2022/08/06 10:49:38;;;;;;;4.30;2.75;;;;;;;;;;5036727;28;20021;-87
2022/08/06 10:52:04;;;;;;;4.45;2.50;;;;;;;;;;5051240;28;20025;-88
2022/08/06 10:54:31;;;;;;;6.15;3.17;;;;;;;;;;5035309;28;20033;-88
2022/08/06 10:56:58;;;;;;;5.38;3.00;;;;;;;;;;5050952;28;20026;-89
2022/08/06 10:59:24;;;;;;;4.78;3.20;;;;;;;;;;5048397;28;20033;-89
2022/08/06 11:01:50;;;;;;;4.65;2.80;;;;;;;;;;5036581;28;20386;-89
2022/08/06 11:04:21;;;;;;;4.75;3.25;;;;;;;;;;5035130;28;20025;-90
2022/08/06 11:06:50;;;;;;;4.70;2.90;;;;;;;;;;5035691;28;20052;-89
2022/08/06 11:09:23;;;;;;;5.47;3.22;;;;;;;;;;5035952;28;20025;-89
2022/08/06 11:11:57;;;;;;;5.53;3.40;;;;;;;;;;5028203;28;20025;-89
2022/08/06 11:14:23;;;;;;;4.90;3.20;;;;;;;;;;5047432;28;20029;-88
2022/08/06 11:16:56;;;;;;;5.00;3.10;;;;;;;;;;5055009;28;20056;-89
2022/08/06 11:19:37;;;;;;;6.75;3.40;;;;;;;;;;5037120;28;20040;-90
2022/08/06 11:22:04;;;;;;;4.85;2.90;;;;;;;;;;5052464;28;20094;-89
2022/08/06 11:24:31;;;;;;;5.40;3.20;;;;;;;;;;5035399;28;20065;-89
2022/08/06 11:26:59;;;;;;;4.90;3.13;;;;;;;;;;5053129;28;20115;-89
2022/08/06 11:29:26;;;;;;;5.68;3.67;;;;;;;;;;5036283;28;20078;-88
2022/08/06 11:31:52;;;;;;;5.32;3.65;;;;;;;;;;5035357;28;20044;-91
2022/08/06 11:34:19;;;;;;;4.93;3.45;;;;;;;;;;5053879;28;20562;-88
2022/08/06 11:36:59;;;;;;;5.45;3.60;;;;;;;;;;5035352;28;20053;-89
2022/08/06 11:39:27;;;;;;;5.15;3.35;;;;;;;;;;5042736;28;20044;-88
2022/08/06 11:41:58;;;;;;;5.80;3.38;;;;;;;;;;5024123;28;20021;-88
2022/08/06 11:44:28;;;;;;;5.45;3.70;;;;;;;;;;5053481;28;20479;-89
2022/08/06 11:47:07;;;;;;;5.47;3.25;;;;;;;;;;5036278;28;20056;-88
2022/08/06 11:49:44;;;;;;;5.25;3.38;;;;;;;;;;5036357;28;20021;-85
2022/08/06 11:52:10;;;;;;;4.90;3.28;;;;;;;;;;5036505;28;20401;-90
2022/08/06 11:54:45;;;;;;;4.75;3.40;;;;;;;;;;5035607;28;20024;-88
2022/08/06 11:57:12;;;;;;;5.60;3.67;;;;;;;;;;5033124;28;20482;-91
2022/08/06 11:59:47;;;;;;;6.03;4.00;;;;;;;;;;5027692;28;20029;-89
2022/08/06 12:02:14;;;;;;;5.15;3.88;;;;;;;;;;5052921;28;20025;-90
2022/08/06 12:04:42;;;;;;;5.65;4.10;;;;;;;;;;5053633;28;20087;-90
2022/08/06 12:07:20;;;;;;;6.35;4.25;;;;;;;;;;5034355;28;20021;-90
2022/08/06 12:09:47;;;;;;;5.60;4.63;;;;;;;;;;5034554;28;20025;-89
2022/08/06 12:12:29;;;;;;;6.45;3.97;;;;;;;;;;5034305;28;20033;-90
2022/08/06 12:14:56;;;;;;;4.90;3.90;;;;;;;;;;5045778;28;20049;-89
2022/08/06 12:17:22;;;;;;;5.70;4.10;;;;;;;;;;5033742;28;20025;-89
2022/08/06 12:19:50;;;;;;;5.40;4.13;;;;;;;;;;5031778;28;20025;-90
2022/08/06 12:22:17;;;;;;;6.65;4.82;;;;;;;;;;5033922;28;20017;-89
2022/08/06 12:24:44;;;;;;;5.35;4.18;;;;;;;;;;5051543;28;20538;-90
2022/08/06 12:27:14;;;;;;;5.30;4.18;;;;;;;;;;5050438;28;20430;-89
2022/08/06 12:29:40;;;;;;;5.20;3.80;;;;;;;;;;5050175;28;20151;-90
2022/08/06 12:32:26;;;;;;;5.40;3.85;;;;;;;;;;5031296;28;20417;-87
2022/08/06 12:34:52;;;;;;;5.97;4.60;;;;;;;;;;5033286;28;20056;-89
2022/08/06 12:37:19;;;;;;;5.90;4.40;;;;;;;;;;5015352;28;20025;-87
2022/08/06 12:42:31;;;;;;;5.32;3.97;;;;;;;;;;5051988;28;20040;-88
2022/08/06 12:44:58;;;;;;;6.20;4.53;;;;;;;;;;5033460;28;20124;-89
2022/08/06 12:47:25;;;;;;;6.30;4.57;;;;;;;;;;5033961;28;20028;-89
2022/08/06 12:49:55;;;;;;;6.15;4.57;;;;;;;;;;5017642;28;20482;-89
2022/08/06 12:52:22;;;;;;;6.53;4.75;;;;;;;;;;5033528;28;20029;-88
2022/08/06 12:54:49;;;;;;;6.38;4.82;;;;;;;;;;5032526;28;20056;-87
2022/08/06 12:57:22;;;;;;;7.13;5.13;;;;;;;;;;5034241;28;20029;-89
2022/08/06 12:59:49;;;;;;;6.78;5.30;;;;;;;;;;5053795;28;20025;-90
2022/08/06 13:02:19;;;;;;;6.28;5.35;;;;;;;;;;5033656;28;20044;-89
2022/08/06 13:04:48;;;;;;;8.00;5.60;;;;;;;;;;5050775;28;20029;-90
2022/08/06 13:07:16;;;;;;;7.10;5.45;;;;;;;;;;5033519;28;20029;-90
2022/08/06 13:09:46;;;;;;;8.45;6.72;;;;;;;;;;5050873;28;20044;-90
2022/08/06 13:12:14;;;;;;;8.13;6.55;;;;;;;;;;5033567;28;20033;-89
2022/08/06 13:14:57;;;;;;;8.63;6.78;;;;;;;;;;5033216;28;20025;-87
2022/08/06 13:17:24;;;;;;;7.57;6.40;;;;;;;;;;5032149;28;20309;-88
2022/08/06 13:19:51;;;;;;;8.30;7.15;;;;;;;;;;5051313;28;20025;-87
2022/08/06 13:22:17;;;;;;;7.55;6.35;;;;;;;;;;5036270;28;20029;-90
2022/08/06 13:24:44;;;;;;;8.25;7.15;;;;;;;;;;5028497;28;20029;-90
2022/08/06 13:27:11;;;;;;;7.57;5.88;;;;;;;;;;5032854;28;20072;-89
2022/08/06 13:29:38;;;;;;;8.60;6.45;;;;;;;;;;5029578;28;20029;-89
2022/08/06 13:32:11;;;;;;;9.00;6.68;;;;;;;;;;5044323;28;20017;-90
2022/08/06 13:34:48;;;;;;;8.68;6.85;;;;;;;;;;5018589;28;20496;-90
2022/08/06 13:37:14;;;;;;;8.15;6.70;;;;;;;;;;5032778;28;20402;-89
2022/08/06 13:39:51;;;;;;;7.28;6.15;;;;;;;;;;5026847;28;20546;-89
2022/08/06 13:42:17;;;;;;;8.98;6.70;;;;;;;;;;5029229;28;20029;-89
2022/08/06 13:44:46;;;;;;;7.63;6.35;;;;;;;;;;5031248;28;20029;-89
2022/08/06 13:47:16;;;;;;;7.95;6.45;;;;;;;;;;5029938;28;20130;-88
2022/08/06 13:49:43;;;;;;;7.90;6.88;;;;;;;;;;5029299;28;20021;-89
2022/08/06 13:52:09;;;;;;;8.25;6.32;;;;;;;;;;5045698;28;20029;-89
2022/08/06 13:54:35;;;;;;;9.88;7.50;;;;;;;;;;5028575;28;20053;-88
2022/08/06 13:57:02;;;;;;;8.80;7.40;;;;;;;;;;5029699;28;20108;-90
2022/08/06 13:59:29;;;;;;;8.35;6.63;;;;;;;;;;5023104;28;20030;-89
2022/08/06 14:01:57;;;;;;;8.18;6.55;;;;;;;;;;5026329;28;20022;-90
2022/08/06 14:04:24;;;;;;;10.52;6.50;;;;;;;;;;5021711;28;20030;-90
2022/08/06 14:06:51;;;;;;;7.63;5.72;;;;;;;;;;5033931;28;20030;-90
2022/08/06 14:09:18;;;;;;;7.35;5.90;;;;;;;;;;5029843;28;20025;-90
2022/08/06 14:11:45;;;;;;;7.07;5.30;;;;;;;;;;5036376;28;20021;-90
2022/08/06 14:14:11;;;;;;;6.93;5.47;;;;;;;;;;5029907;28;20123;-89
2022/08/06 14:16:46;;;;;;;7.38;5.05;;;;;;;;;;5019503;28;20035;-89
2022/08/06 14:19:12;;;;;;;7.28;4.72;;;;;;;;;;5034243;28;20128;-89
2022/08/06 14:21:38;;;;;;;6.90;4.90;;;;;;;;;;5034332;28;20108;-90
2022/08/06 14:24:04;;;;;;;5.95;4.40;;;;;;;;;;5035390;28;20021;-87
2022/08/06 14:26:30;;;;;;;5.80;3.95;;;;;;;;;;5035230;28;20037;-88
2022/08/06 14:28:57;;;;;;;5.70;3.65;;;;;;;;;;5033788;28;20025;-88
2022/08/06 14:31:23;;;;;;;5.22;3.78;;;;;;;;;;5032741;28;20022;-87
2022/08/06 14:33:49;;;;;;;5.50;4.18;;;;;;;;;;5032460;28;20028;-87
2022/08/06 14:36:15;;;;;;;4.97;3.20;;;;;;;;;;5033008;28;20471;-85
2022/08/06 14:38:41;;;;;;;6.85;3.10;;;;;;;;;;5038342;28;20048;-87
2022/08/06 14:46:36;;;;;;;4.40;2.72;;;;;;;;;;5051946;28;20039;-86
2022/08/06 14:49:02;;;;;;;5.18;3.22;;;;;;;;;;5032828;28;20026;-88
2022/08/06 14:51:29;;;;;;;4.72;2.78;;;;;;;;;;5044051;28;20083;-88
2022/08/06 14:53:55;;;;;;;4.68;2.60;;;;;;;;;;5049066;28;20032;-89
2022/08/06 14:56:21;;;;;;;4.65;2.70;;;;;;;;;;5053985;28;20454;-88
2022/08/06 14:58:47;;;;;;;4.32;2.85;;;;;;;;;;5052771;28;20191;-88
2022/08/06 15:01:13;;;;;;;4.78;2.90;;;;;;;;;;5053182;28;20164;-88
2022/08/06 15:03:39;;;;;;;4.60;2.80;;;;;;;;;;5034375;28;20087;-89